createdAt,value
2022-09-14T00:02:31.437Z,4.20
2022-09-14T00:05:22.425Z,3.90
2022-09-14T00:08:12.996Z,3.10
2022-09-14T00:11:08.147Z,4.60
2022-09-14T00:14:00.253Z,2.50
2022-09-14T00:16:51.016Z,3.00
2022-09-14T00:19:41.251Z,3.10
2022-09-14T00:22:31.599Z,3.70
2022-09-14T00:25:21.400Z,6.30
2022-09-14T00:28:11.983Z,4.00
2022-09-14T00:31:01.983Z,6.90
2022-09-14T00:33:53.913Z,3.60
2022-09-14T00:36:46.562Z,3.00
2022-09-14T00:39:37.688Z,3.00
2022-09-14T00:42:27.709Z,1.80
2022-09-14T00:45:23.291Z,2.80
2022-09-14T00:48:13.312Z,3.90
2022-09-14T00:51:03.461Z,3.20
2022-09-14T00:53:53.933Z,2.90
2022-09-14T00:56:44.073Z,4.00
2022-09-14T00:59:38.345Z,4.30
2022-09-14T01:02:30.419Z,3.70
2022-09-14T01:05:26.295Z,3.60
2022-09-14T01:08:30.176Z,4.60
2022-09-14T01:11:38.306Z,4.70
2022-09-14T01:14:42.614Z,4.90
2022-09-14T01:17:39.579Z,4.50
2022-09-14T01:20:35.563Z,2.70
2022-09-14T01:23:36.606Z,3.50
2022-09-14T01:26:51.166Z,4.10
2022-09-14T01:29:46.816Z,4.80
2022-09-14T01:32:40.990Z,3.80
2022-09-14T01:35:34.714Z,2.90
2022-09-14T01:38:30.705Z,3.00
2022-09-14T01:41:25.521Z,2.90
2022-09-14T01:44:19.989Z,4.40
2022-09-14T01:47:15.116Z,4.20
2022-09-14T01:50:11.787Z,6.00
2022-09-14T01:53:10.281Z,4.30
2022-09-14T01:56:04.153Z,4.00
2022-09-14T01:59:01.436Z,2.10
2022-09-14T02:01:55.389Z,2.90
2022-09-14T02:04:50.560Z,4.30
2022-09-14T02:07:41.238Z,3.20
2022-09-14T02:10:32.196Z,3.50
2022-09-14T02:13:22.048Z,3.30
2022-09-14T02:16:12.089Z,3.50
2022-09-14T02:19:02.225Z,3.70
2022-09-14T02:21:52.169Z,3.60
2022-09-14T02:24:42.418Z,3.60
2022-09-14T02:27:32.422Z,3.60
2022-09-14T02:30:23.416Z,3.90
2022-09-14T02:33:21.249Z,3.00
2022-09-14T02:36:19.374Z,4.60
2022-09-14T02:39:14.855Z,4.40
2022-09-14T02:42:16.486Z,4.40
2022-09-14T02:45:14.164Z,3.50
2022-09-14T02:48:13.769Z,4.10
2022-09-14T02:51:10.911Z,3.20
2022-09-14T02:54:05.479Z,5.30
2022-09-14T02:56:55.440Z,4.20
2022-09-14T02:59:46.733Z,4.20
2022-09-14T03:02:36.634Z,4.70
2022-09-14T03:05:26.658Z,4.40
2022-09-14T03:08:17.051Z,4.60
2022-09-14T03:11:08.691Z,3.90
2022-09-14T03:13:58.636Z,7.60
2022-09-14T03:16:48.449Z,5.50
2022-09-14T03:19:38.332Z,4.60
2022-09-14T03:22:28.459Z,5.50
2022-09-14T03:25:20.145Z,5.20
2022-09-14T03:28:11.608Z,4.30
2022-09-14T03:31:04.967Z,4.30
2022-09-14T03:33:58.440Z,5.20
2022-09-14T03:36:48.722Z,4.30
2022-09-14T03:39:38.497Z,4.50
2022-09-14T03:42:28.571Z,6.20
2022-09-14T03:45:20.031Z,5.40
2022-09-14T03:48:12.002Z,4.50
2022-09-14T03:51:04.714Z,4.20
2022-09-14T03:53:54.530Z,4.30
2022-09-14T03:56:44.176Z,3.90
2022-09-14T03:59:33.949Z,4.70
2022-09-14T04:02:24.143Z,4.50
2022-09-14T04:05:14.944Z,5.00
2022-09-14T04:08:07.181Z,5.80
2022-09-14T04:10:57.407Z,5.60
2022-09-14T04:13:48.113Z,4.10
2022-09-14T04:16:38.018Z,5.70
2022-09-14T04:19:28.387Z,4.70
2022-09-14T04:22:18.285Z,4.30
2022-09-14T04:25:09.541Z,6.20
2022-09-14T04:28:19.231Z,4.40
2022-09-14T04:31:10.755Z,5.80
2022-09-14T04:34:00.645Z,4.90
2022-09-14T04:36:50.307Z,6.10
2022-09-14T04:39:40.602Z,4.80
2022-09-14T04:42:30.929Z,4.20
2022-09-14T04:45:21.493Z,4.40
2022-09-14T04:48:12.069Z,4.90
2022-09-14T04:51:05.537Z,5.30
2022-09-14T04:53:57.942Z,4.60
2022-09-14T04:56:48.457Z,4.10
2022-09-14T04:59:38.277Z,5.90
2022-09-14T05:02:31.159Z,6.80
2022-09-14T05:05:21.418Z,3.50
2022-09-14T05:08:12.101Z,5.20
2022-09-14T05:11:02.905Z,3.60
2022-09-14T05:13:53.224Z,5.50
2022-09-14T05:16:44.796Z,3.80
2022-09-14T05:19:35.336Z,7.60
2022-09-14T05:22:25.523Z,5.10
2022-09-14T05:25:15.413Z,5.00
2022-09-14T05:28:06.090Z,4.90
2022-09-14T05:30:56.259Z,4.20
2022-09-14T05:33:46.022Z,5.10
2022-09-14T05:36:38.650Z,5.40
2022-09-14T05:39:29.526Z,5.20
2022-09-14T05:42:19.732Z,4.70
2022-09-14T05:45:11.679Z,5.40
2022-09-14T05:48:05.742Z,4.30
2022-09-14T05:51:02.826Z,5.00
2022-09-14T05:53:54.996Z,7.70
2022-09-14T05:56:44.851Z,9.00
2022-09-14T05:59:35.132Z,8.80
2022-09-14T06:02:25.246Z,6.70
2022-09-14T06:05:15.577Z,7.20
2022-09-14T06:08:06.413Z,5.60
2022-09-14T06:10:56.189Z,4.90
2022-09-14T06:13:47.222Z,6.20
2022-09-14T06:16:37.468Z,6.10
2022-09-14T06:19:27.783Z,8.00
2022-09-14T06:22:17.792Z,7.00
2022-09-14T06:25:08.990Z,5.80
2022-09-14T06:27:58.926Z,7.70
2022-09-14T06:30:48.602Z,7.40
2022-09-14T06:33:38.585Z,9.90
2022-09-14T06:36:29.806Z,8.50
2022-09-14T06:39:19.886Z,6.50
2022-09-14T06:42:10.313Z,7.30
2022-09-14T06:45:02.067Z,8.10
2022-09-14T06:47:52.053Z,9.40
2022-09-14T06:50:42.197Z,5.80
2022-09-14T06:53:32.906Z,5.70
2022-09-14T06:56:23.275Z,7.10
2022-09-14T06:59:15.313Z,6.50
2022-09-14T07:02:05.320Z,7.30
2022-09-14T07:04:55.438Z,6.90
2022-09-14T07:07:45.928Z,6.40
2022-09-14T07:10:36.274Z,5.70
2022-09-14T07:13:29.124Z,7.70
2022-09-14T07:16:18.899Z,8.20
2022-09-14T07:19:12.741Z,4.90
2022-09-14T07:22:03.542Z,4.80
2022-09-14T07:24:54.087Z,5.70
2022-09-14T07:27:43.950Z,6.30
2022-09-14T07:30:35.600Z,4.70
2022-09-14T07:33:26.305Z,6.40
2022-09-14T07:36:17.841Z,7.10
2022-09-14T07:39:10.032Z,6.10
2022-09-14T07:42:00.442Z,6.90
2022-09-14T07:44:50.528Z,6.40
2022-09-14T07:47:40.722Z,8.40
2022-09-14T07:50:30.257Z,7.70
2022-09-14T07:53:20.425Z,8.10
2022-09-14T07:56:11.053Z,5.30
2022-09-14T08:02:13.065Z,5.70
2022-09-14T08:05:03.053Z,9.80
2022-09-14T08:07:56.950Z,5.00
2022-09-14T08:10:46.802Z,7.70
2022-09-14T08:13:37.312Z,9.20
2022-09-14T08:16:29.393Z,7.40
2022-09-14T08:19:21.071Z,8.40
2022-09-14T08:22:11.348Z,7.80
2022-09-14T08:25:01.360Z,10.20
2022-09-14T08:27:51.228Z,12.20
2022-09-14T08:30:41.802Z,9.20
2022-09-14T08:33:31.820Z,10.50
2022-09-14T08:36:24.560Z,8.40
2022-09-14T08:39:16.382Z,8.60
2022-09-14T08:42:07.867Z,10.10
2022-09-14T08:45:01.970Z,7.80
2022-09-14T08:47:54.340Z,5.60
2022-09-14T08:50:44.346Z,11.60
2022-09-14T08:53:38.678Z,11.50
2022-09-14T08:56:33.134Z,12.10
2022-09-14T08:59:34.983Z,8.00
2022-09-14T09:02:43.753Z,7.70
2022-09-14T09:05:43.488Z,8.70
2022-09-14T09:08:40.885Z,7.80
2022-09-14T09:11:38.662Z,6.80
2022-09-14T09:14:32.641Z,7.70
2022-09-14T09:17:29.116Z,8.20
2022-09-14T09:20:23.610Z,8.00
2022-09-14T09:23:17.670Z,8.70
2022-09-14T09:26:13.694Z,8.60
2022-09-14T09:29:07.025Z,9.50
2022-09-14T09:32:19.481Z,4.90
2022-09-14T09:35:11.777Z,7.00
2022-09-14T09:38:17.222Z,6.40
2022-09-14T09:41:17.296Z,6.60
2022-09-14T09:44:10.533Z,8.20
2022-09-14T09:47:02.818Z,9.10
2022-09-14T09:50:01.174Z,10.10
2022-09-14T09:52:55.866Z,7.30
2022-09-14T09:55:50.545Z,7.10
2022-09-14T09:58:41.490Z,6.20
2022-09-14T10:01:33.821Z,7.90
2022-09-14T10:04:27.930Z,5.70
2022-09-14T10:07:24.491Z,9.40
2022-09-14T10:10:17.297Z,7.20
2022-09-14T10:13:17.084Z,6.80
2022-09-14T10:16:15.335Z,9.00
2022-09-14T10:19:05.373Z,6.80
2022-09-14T10:22:25.703Z,6.90
2022-09-14T10:25:28.016Z,7.20
2022-09-14T10:28:28.074Z,6.00
2022-09-14T10:31:24.470Z,9.60
2022-09-14T10:34:21.557Z,9.70
2022-09-14T10:37:33.392Z,7.80
2022-09-14T10:40:34.437Z,7.70
2022-09-14T10:43:38.576Z,11.30
2022-09-14T10:46:40.310Z,8.70
2022-09-14T10:49:44.876Z,8.10
2022-09-14T10:52:43.179Z,9.00
2022-09-14T10:55:43.843Z,10.70
2022-09-14T10:58:44.702Z,6.80
2022-09-14T11:01:51.260Z,5.90
2022-09-14T11:04:53.953Z,6.70
2022-09-14T11:07:54.270Z,6.10
2022-09-14T11:10:57.866Z,6.70
2022-09-14T11:13:59.207Z,6.50
2022-09-14T11:17:06.630Z,7.20
2022-09-14T11:20:06.175Z,9.10
2022-09-14T11:23:06.707Z,10.80
2022-09-14T11:26:01.443Z,6.80
2022-09-14T11:28:54.135Z,10.10
2022-09-14T11:32:10.113Z,9.20
2022-09-14T11:35:04.076Z,10.30
2022-09-14T11:38:00.913Z,7.90
2022-09-14T11:40:54.949Z,8.50
2022-09-14T11:43:51.730Z,7.60
2022-09-14T11:46:47.858Z,7.30
2022-09-14T11:49:57.868Z,5.50
2022-09-14T11:52:49.726Z,5.20
2022-09-14T11:55:41.784Z,8.90
2022-09-14T11:58:32.256Z,9.80
2022-09-14T12:01:35.700Z,9.50
2022-09-14T12:04:25.798Z,6.70
2022-09-14T12:07:55.617Z,7.10
2022-09-14T12:11:03.580Z,5.90
2022-09-14T12:14:24.547Z,8.00
2022-09-14T12:17:38.900Z,7.00
2022-09-14T12:20:49.495Z,7.20
2022-09-14T12:23:51.927Z,8.80
2022-09-14T12:26:41.712Z,7.10
2022-09-14T12:29:35.561Z,7.20
2022-09-14T12:32:40.404Z,8.90
2022-09-14T12:35:48.529Z,8.10
2022-09-14T12:39:08.594Z,7.00
2022-09-14T12:42:25.982Z,9.80
2022-09-14T12:45:46.653Z,11.20
2022-09-14T12:49:16.297Z,8.10
2022-09-14T12:52:21.948Z,8.10
2022-09-14T12:55:27.038Z,8.00
2022-09-14T12:58:34.124Z,9.00
2022-09-14T13:01:34.358Z,8.50
2022-09-14T13:04:28.859Z,10.70
2022-09-14T13:07:21.368Z,6.10
2022-09-14T13:10:25.748Z,8.00
2022-09-14T13:13:19.576Z,7.60
2022-09-14T13:16:14.409Z,7.60
2022-09-14T13:19:10.086Z,7.60
2022-09-14T13:22:03.667Z,7.90
2022-09-14T13:24:56.285Z,10.20
2022-09-14T13:27:51.180Z,8.00
2022-09-14T13:30:41.928Z,8.10
2022-09-14T13:33:32.572Z,10.50
2022-09-14T13:36:25.678Z,11.40
2022-09-14T13:39:27.177Z,7.70
2022-09-14T13:42:17.917Z,10.20
2022-09-14T13:45:11.465Z,11.80
2022-09-14T13:48:01.887Z,9.90
2022-09-14T13:50:53.360Z,17.20
2022-09-14T13:53:49.603Z,21.90
2022-09-14T13:56:39.863Z,11.60
2022-09-14T13:59:30.053Z,9.90
2022-09-14T14:02:20.219Z,8.90
2022-09-14T14:05:24.834Z,9.50
2022-09-14T14:08:33.799Z,12.50
2022-09-14T14:11:33.776Z,17.20
2022-09-14T14:14:30.821Z,9.90
2022-09-14T14:17:34.358Z,11.70
2022-09-14T14:20:37.825Z,12.20
2022-09-14T14:23:27.732Z,9.80
2022-09-14T14:26:23.540Z,11.90
2022-09-14T14:29:16.208Z,9.40
2022-09-14T14:32:06.329Z,11.20
2022-09-14T14:34:56.204Z,10.80
2022-09-14T14:37:48.173Z,11.10
2022-09-14T14:40:39.530Z,8.60
2022-09-14T14:43:30.753Z,9.60
2022-09-14T14:46:21.142Z,8.80
2022-09-14T14:49:14.142Z,8.60
2022-09-14T14:52:05.210Z,8.10
2022-09-14T14:54:56.285Z,9.30
2022-09-14T14:57:46.521Z,10.00
2022-09-14T15:00:38.674Z,7.50
2022-09-14T15:03:28.793Z,7.60
2022-09-14T15:06:23.817Z,10.80
2022-09-14T15:09:18.419Z,8.50
2022-09-14T15:12:10.044Z,9.30
2022-09-14T15:15:00.475Z,10.00
2022-09-14T15:17:50.971Z,8.30
2022-09-14T15:20:41.199Z,8.20
2022-09-14T15:23:31.632Z,11.40
2022-09-14T15:26:21.670Z,7.30
2022-09-14T15:29:13.948Z,7.80
2022-09-14T15:32:04.332Z,7.50
2022-09-14T15:34:55.072Z,11.00
2022-09-14T15:37:45.564Z,10.80
2022-09-14T15:40:36.227Z,6.90
2022-09-14T15:43:26.659Z,7.90
2022-09-14T15:46:16.897Z,8.40
2022-09-14T15:49:12.607Z,8.50
2022-09-14T15:52:02.640Z,7.00
2022-09-14T15:54:52.774Z,11.90
2022-09-14T15:57:42.977Z,6.90
2022-09-14T16:00:32.776Z,6.90
2022-09-14T16:03:23.404Z,5.90
2022-09-14T16:06:15.494Z,9.10
2022-09-14T16:09:07.579Z,12.00
2022-09-14T16:12:01.533Z,10.10
2022-09-14T16:14:52.103Z,8.20
2022-09-14T16:17:42.677Z,8.30
2022-09-14T16:20:32.766Z,8.80
2022-09-14T16:23:23.116Z,8.00
2022-09-14T16:26:15.659Z,6.40
2022-09-14T16:29:06.283Z,8.70
2022-09-14T16:31:56.278Z,9.00
2022-09-14T16:34:46.054Z,10.70
2022-09-14T16:37:36.330Z,9.60
2022-09-14T16:40:26.654Z,12.70
2022-09-14T16:43:16.976Z,22.20
2022-09-14T16:46:10.791Z,36.50
2022-09-14T16:49:00.664Z,21.50
2022-09-14T16:51:50.746Z,16.30
2022-09-14T16:54:41.076Z,9.60
2022-09-14T16:57:31.001Z,18.00
2022-09-14T17:00:21.718Z,12.00
2022-09-14T17:03:11.661Z,17.80
2022-09-14T17:06:05.481Z,11.10
2022-09-14T17:08:59.556Z,10.30
2022-09-14T17:11:50.023Z,9.10
2022-09-14T17:14:39.551Z,8.30
2022-09-14T17:17:29.476Z,8.30
2022-09-14T17:20:19.358Z,8.00
2022-09-14T17:23:09.924Z,8.10
2022-09-14T17:26:01.000Z,8.40
2022-09-14T17:28:52.447Z,7.70
2022-09-14T17:31:44.573Z,8.20
2022-09-14T17:34:34.839Z,7.90
2022-09-14T17:37:24.827Z,7.10
2022-09-14T17:40:15.313Z,10.20
2022-09-14T17:43:05.084Z,15.70
2022-09-14T17:45:59.079Z,18.40
2022-09-14T17:48:49.661Z,38.60
2022-09-14T17:51:41.007Z,34.60
2022-09-14T17:54:31.401Z,32.10
2022-09-14T17:57:21.185Z,31.30
2022-09-14T18:00:14.813Z,28.60
2022-09-14T18:03:05.212Z,25.60
2022-09-14T18:05:58.344Z,21.80
2022-09-14T18:08:48.553Z,17.40
2022-09-14T18:11:39.419Z,18.30
2022-09-14T18:14:29.809Z,16.10
2022-09-14T18:17:19.624Z,14.20
2022-09-14T18:20:11.854Z,12.40
2022-09-14T18:23:01.908Z,11.40
2022-09-14T18:25:52.171Z,12.10
2022-09-14T18:28:42.369Z,10.90
2022-09-14T18:31:32.961Z,9.10
2022-09-14T18:34:23.867Z,11.00
2022-09-14T18:37:14.234Z,8.50
2022-09-14T18:40:04.417Z,7.90
2022-09-14T18:42:55.024Z,7.70
2022-09-14T18:45:45.669Z,8.70
2022-09-14T18:48:35.995Z,7.30
2022-09-14T18:51:26.656Z,8.20
2022-09-14T18:54:17.110Z,7.20
2022-09-14T18:57:07.384Z,10.10
2022-09-14T18:59:57.253Z,11.20
2022-09-14T19:02:52.377Z,7.40
2022-09-14T19:05:43.584Z,7.10
2022-09-14T19:08:33.464Z,8.30
2022-09-14T19:11:25.263Z,10.50
2022-09-14T19:14:17.482Z,8.20
2022-09-14T19:17:06.985Z,7.60
2022-09-14T19:19:56.556Z,7.60
2022-09-14T19:22:46.299Z,9.60
2022-09-14T19:25:39.218Z,9.60
2022-09-14T19:28:29.415Z,8.10
2022-09-14T19:31:22.671Z,9.60
2022-09-14T19:34:13.557Z,7.10
2022-09-14T19:37:03.267Z,8.70
2022-09-14T19:39:54.279Z,7.40
2022-09-14T19:42:43.801Z,8.30
2022-09-14T19:45:36.232Z,8.50
2022-09-14T19:48:26.901Z,9.60
2022-09-14T19:51:18.956Z,7.60
2022-09-14T19:54:10.117Z,10.00
2022-09-14T19:56:59.791Z,7.50
2022-09-14T19:59:49.768Z,9.90
2022-09-14T20:02:40.190Z,7.40
2022-09-14T20:05:30.224Z,8.40
2022-09-14T20:08:20.054Z,9.90
2022-09-14T20:11:11.811Z,10.40
2022-09-14T20:14:04.932Z,6.70
2022-09-14T20:16:56.528Z,7.90
2022-09-14T20:19:46.292Z,9.00
2022-09-14T20:22:36.463Z,9.80
2022-09-14T20:25:26.864Z,9.20
2022-09-14T20:28:16.918Z,8.90
2022-09-14T20:31:09.254Z,9.90
2022-09-14T20:33:59.701Z,9.30
2022-09-14T20:36:50.798Z,9.10
2022-09-14T20:39:41.178Z,8.10
2022-09-14T20:42:31.409Z,9.20
2022-09-14T20:45:21.804Z,8.20
2022-09-14T20:48:12.278Z,8.60
2022-09-14T20:51:02.825Z,8.70
2022-09-14T20:53:52.484Z,7.80
2022-09-14T20:56:42.837Z,10.90
2022-09-14T20:59:33.124Z,8.80
2022-09-14T21:02:22.815Z,10.30
2022-09-14T21:05:12.975Z,8.20
2022-09-14T21:08:04.009Z,11.60
2022-09-14T21:10:54.488Z,9.00
2022-09-14T21:13:45.236Z,8.40
2022-09-14T21:16:37.089Z,13.60
2022-09-14T21:19:28.944Z,6.60
2022-09-14T21:22:18.446Z,13.40
2022-09-14T21:25:11.388Z,11.20
2022-09-14T21:28:00.990Z,10.30
2022-09-14T21:30:50.839Z,9.50
2022-09-14T21:33:42.246Z,9.50
2022-09-14T21:36:34.755Z,7.60
2022-09-14T21:39:27.104Z,11.80
2022-09-14T21:42:17.293Z,8.90
2022-09-14T21:45:08.474Z,9.20
2022-09-14T21:47:58.299Z,10.20
2022-09-14T21:50:48.410Z,9.10
2022-09-14T21:53:38.321Z,10.40
2022-09-14T21:56:29.936Z,10.10
2022-09-14T21:59:22.017Z,8.60
2022-09-14T22:02:12.692Z,11.20
2022-09-14T22:05:04.142Z,11.70
2022-09-14T22:07:54.044Z,9.70
2022-09-14T22:10:43.723Z,12.60
2022-09-14T22:13:34.742Z,12.00
2022-09-14T22:16:25.719Z,10.50
2022-09-14T22:19:19.760Z,10.30
2022-09-14T22:22:09.815Z,9.60
2022-09-14T22:24:59.561Z,7.90
2022-09-14T22:27:49.820Z,10.70
2022-09-14T22:30:44.356Z,10.40
2022-09-14T22:33:34.567Z,9.30
2022-09-14T22:36:26.009Z,8.40
2022-09-14T22:39:17.011Z,10.40
2022-09-14T22:42:08.440Z,9.80
2022-09-14T22:44:59.020Z,10.30
2022-09-14T22:47:50.201Z,10.50
2022-09-14T22:50:40.195Z,7.90
2022-09-14T22:53:31.420Z,11.40
2022-09-14T22:56:24.153Z,9.40
2022-09-14T22:59:14.323Z,11.20
2022-09-14T23:02:04.463Z,9.90
2022-09-14T23:04:55.886Z,11.00
2022-09-14T23:07:45.943Z,10.40
2022-09-14T23:10:39.405Z,13.20
2022-09-14T23:13:29.096Z,9.00
2022-09-14T23:16:20.952Z,9.10
2022-09-14T23:19:14.840Z,10.30
2022-09-14T23:22:05.010Z,12.20
2022-09-14T23:24:55.168Z,9.70
2022-09-14T23:27:44.436Z,9.90
2022-09-14T23:30:35.273Z,11.40
2022-09-14T23:33:25.622Z,9.60
2022-09-14T23:36:15.693Z,11.70
2022-09-14T23:39:05.812Z,10.50
2022-09-14T23:41:56.096Z,7.50
2022-09-14T23:44:45.900Z,9.10
2022-09-14T23:47:35.593Z,10.00
2022-09-14T23:50:25.897Z,13.00
2022-09-14T23:53:15.917Z,10.70
2022-09-14T23:56:07.660Z,10.10
2022-09-14T23:58:57.541Z,10.70
